Ozgur Aksoy — 9HA2587 — position and weather

sailwx.info

Track history (hours):
 
Tides and Currents Weather Stations Pressure Air Temp Water Temp Dewpoint Dewpoint Depression Visibility Wind Speed Wind Dir Waves Ship Positions

Ozgur Aksoy

Last reported at 2017-Oct-31 02:34 UTC. Time now 2017-Nov-23 22:22 UTC.
Position N 21°37' E 113°24'.
Warning: this ship's position is 23 days out of date.

Length 196 m; draft 12.1 m.

Type: Cargo ship. MMSI: 248950000.

Date/timePositionNaut miles runAvg speedWind from/ knotsBaromVisibWave heightAir tempDewpointWater temp
2017-Oct-31 02:34N 21°37' E 113°24'111.4
2017-Oct-31 02:30N 21°37' E 113°25'611.7
2017-Oct-31 02:00N 21°40' E 113°30'711.7
2017-Oct-31 01:27N 21°43' E 113°37'511.6
2017-Oct-31 01:01N 21°46' E 113°42'711.9
2017-Oct-31 00:25N 21°49' E 113°48'612.0
2017-Oct-30 23:56N 21°52' E 113°54'512.1
2017-Oct-30 23:30N 21°54' E 113°59'611.6
2017-Oct-30 23:00N 21°59' E 114°02'1011.8
2017-Oct-30 22:10N 22°08' E 114°06'310.0
2017-Oct-30 21:54N 22°09' E 114°09'9 0.9
2017-Oct-30 12:12N 22°08' E 114°19'211.9
2017-Oct-30 12:00N 22°08' E 114°21'612.1
2017-Oct-30 11:30N 22°07' E 114°28'612.2
2017-Oct-30 11:00N 22°07' E 114°34'612.2
2017-Oct-30 10:30N 22°07' E 114°41'712.2
2017-Oct-30 09:58N 22°07' E 114°48'612.3
2017-Oct-30 09:30N 22°07' E 114°54'712.1
2017-Oct-30 08:58N 22°09' E 115°01'512.0
2017-Oct-30 08:30N 22°12' E 115°06'712.4
2017-Oct-30 07:57N 22°13' E 115°14'  
2017-Oct-27 19:29N 30°59' E 123°07'610.3
2017-Oct-27 18:53N 31°03' E 123°02'510.8
2017-Oct-27 18:24N 31°07' E 122°58'410.9
2017-Oct-27 17:59N 31°11' E 122°56'2111.3
2017-Oct-27 16:09N 31°31' E 122°50'211.6
2017-Oct-27 15:59N 31°33' E 122°51'1011.6
2017-Oct-27 15:07N 31°43' E 122°51'511.9
2017-Oct-27 14:44N 31°48' E 122°51'312.0
2017-Oct-27 14:29N 31°51' E 122°51'1012.0
2017-Oct-27 13:37N 32°01' E 122°50'  
Track history (hours):
 
Tides and Currents Weather Stations Pressure Air Temp Water Temp Dewpoint Dewpoint Depression Visibility Wind Speed Wind Dir Waves Ship Positions

Ozgur Aksoy

Last reported at 2017-Oct-31 02:34 UTC. Time now 2017-Nov-23 22:22 UTC.
Position N 21°37' E 113°24'.
Warning: this ship's position is 23 days out of date.

Length 196 m; draft 12.1 m.

Type: Cargo ship. MMSI: 248950000.

Date/timePositionNaut miles runAvg speedWind from/ knotsBaromVisibWave heightAir tempDewpointWater temp
2017-Oct-31 02:34N 21°37' E 113°24'111.4
2017-Oct-31 02:30N 21°37' E 113°25'611.7
2017-Oct-31 02:00N 21°40' E 113°30'711.7
2017-Oct-31 01:27N 21°43' E 113°37'511.6
2017-Oct-31 01:01N 21°46' E 113°42'711.9
2017-Oct-31 00:25N 21°49' E 113°48'612.0
2017-Oct-30 23:56N 21°52' E 113°54'512.1
2017-Oct-30 23:30N 21°54' E 113°59'611.6
2017-Oct-30 23:00N 21°59' E 114°02'1011.8
2017-Oct-30 22:10N 22°08' E 114°06'310.0
2017-Oct-30 21:54N 22°09' E 114°09'9 0.9
2017-Oct-30 12:12N 22°08' E 114°19'211.9
2017-Oct-30 12:00N 22°08' E 114°21'612.1
2017-Oct-30 11:30N 22°07' E 114°28'612.2
2017-Oct-30 11:00N 22°07' E 114°34'612.2
2017-Oct-30 10:30N 22°07' E 114°41'712.2
2017-Oct-30 09:58N 22°07' E 114°48'612.3
2017-Oct-30 09:30N 22°07' E 114°54'712.1
2017-Oct-30 08:58N 22°09' E 115°01'512.0
2017-Oct-30 08:30N 22°12' E 115°06'712.4
2017-Oct-30 07:57N 22°13' E 115°14'  
2017-Oct-27 19:29N 30°59' E 123°07'610.3
2017-Oct-27 18:53N 31°03' E 123°02'510.8
2017-Oct-27 18:24N 31°07' E 122°58'410.9
2017-Oct-27 17:59N 31°11' E 122°56'2111.3
2017-Oct-27 16:09N 31°31' E 122°50'211.6
2017-Oct-27 15:59N 31°33' E 122°51'1011.6
2017-Oct-27 15:07N 31°43' E 122°51'511.9
2017-Oct-27 14:44N 31°48' E 122°51'312.0
2017-Oct-27 14:29N 31°51' E 122°51'1012.0
2017-Oct-27 13:37N 32°01' E 122°50'  

Dump ship's entire track history